createdAt,value
2018-09-26T00:02:01.185Z,14.02
2018-09-26T00:04:30.774Z,13.77
2018-09-26T00:06:59.989Z,13.88
2018-09-26T00:09:28.860Z,13.91
2018-09-26T00:11:57.717Z,13.93
2018-09-26T00:14:26.933Z,13.82
2018-09-26T00:16:55.778Z,13.66
2018-09-26T00:19:24.732Z,13.75
2018-09-26T00:21:53.929Z,13.83
2018-09-26T00:24:22.794Z,13.87
2018-09-26T00:26:51.654Z,13.89
2018-09-26T00:29:20.998Z,13.79
2018-09-26T00:31:49.874Z,13.64
2018-09-26T00:34:18.859Z,13.63
2018-09-26T00:36:48.106Z,13.56
2018-09-26T00:39:16.970Z,13.66
2018-09-26T00:41:45.821Z,13.70
2018-09-26T00:44:15.019Z,13.73
2018-09-26T00:46:43.895Z,13.74
2018-09-26T00:49:12.792Z,13.76
2018-09-26T00:51:41.935Z,13.73
2018-09-26T00:54:10.838Z,13.71
2018-09-26T00:56:39.789Z,13.74
2018-09-26T00:59:09.368Z,13.71
2018-09-26T01:01:38.209Z,13.72
2018-09-26T01:04:07.166Z,13.66
2018-09-26T01:06:36.384Z,13.64
2018-09-26T01:09:06.788Z,13.66
2018-09-26T01:11:35.755Z,13.62
2018-09-26T01:14:05.463Z,13.61
2018-09-26T01:16:34.391Z,13.55
2018-09-26T01:19:03.738Z,13.54
2018-09-26T01:21:32.737Z,13.50
2018-09-26T01:24:02.573Z,13.56
2018-09-26T01:26:31.880Z,13.53
2018-09-26T01:29:00.814Z,13.55
2018-09-26T01:31:29.827Z,13.55
2018-09-26T01:33:59.140Z,13.54
2018-09-26T01:36:28.240Z,13.50
2018-09-26T01:38:57.234Z,13.48
2018-09-26T01:41:26.095Z,13.45
2018-09-26T01:43:54.963Z,13.39
2018-09-26T01:46:23.830Z,13.33
2018-09-26T01:48:52.776Z,13.17
2018-09-26T01:51:21.905Z,13.24
2018-09-26T01:53:51.137Z,13.25
2018-09-26T01:56:20.400Z,13.25
2018-09-26T01:58:49.323Z,13.23
2018-09-26T02:01:18.688Z,13.22
2018-09-26T02:03:47.769Z,12.94
2018-09-26T02:06:16.970Z,12.91
2018-09-26T02:08:46.349Z,12.99
2018-09-26T02:11:15.254Z,12.99
2018-09-26T02:13:44.143Z,12.98
2018-09-26T02:16:13.478Z,12.89
2018-09-26T02:18:42.534Z,12.96
2018-09-26T02:21:11.449Z,12.92
2018-09-26T02:23:40.462Z,12.90
2018-09-26T02:26:09.490Z,12.79
2018-09-26T02:28:38.441Z,12.78
2018-09-26T02:31:07.507Z,12.80
2018-09-26T02:33:36.707Z,12.79
2018-09-26T02:36:06.284Z,12.79
2018-09-26T02:38:35.293Z,12.73
2018-09-26T02:41:04.614Z,12.74
2018-09-26T02:43:33.502Z,12.63
2018-09-26T02:46:03.133Z,12.62
2018-09-26T02:48:37.327Z,12.60
2018-09-26T02:51:06.254Z,12.60
2018-09-26T02:53:35.134Z,12.60
2018-09-26T02:56:04.742Z,12.50
2018-09-26T02:58:33.578Z,12.49
2018-09-26T03:01:04.493Z,12.50
2018-09-26T03:03:33.390Z,12.50
2018-09-26T03:06:03.996Z,12.48
2018-09-26T03:08:33.137Z,12.31
2018-09-26T03:11:02.068Z,12.39
2018-09-26T03:13:30.889Z,12.39
2018-09-26T03:16:00.048Z,12.40
2018-09-26T03:18:28.911Z,12.39
2018-09-26T03:20:57.806Z,12.39
2018-09-26T03:23:26.768Z,12.38
2018-09-26T03:25:55.629Z,12.36
2018-09-26T03:28:24.860Z,12.38
2018-09-26T03:30:53.735Z,12.33
2018-09-26T03:33:27.868Z,12.36
2018-09-26T03:35:57.318Z,12.37
2018-09-26T03:38:26.328Z,12.37
2018-09-26T03:40:55.320Z,12.37
2018-09-26T03:43:24.488Z,12.35
2018-09-26T03:45:53.302Z,12.32
2018-09-26T03:48:22.177Z,12.28
2018-09-26T03:50:51.399Z,12.31
2018-09-26T03:53:20.617Z,12.31
2018-09-26T03:55:49.531Z,12.29
2018-09-26T03:58:19.540Z,12.30
2018-09-26T04:00:48.368Z,12.31
2018-09-26T04:03:17.244Z,12.31
2018-09-26T04:06:48.781Z,12.29
2018-09-26T04:09:17.939Z,12.27
2018-09-26T04:11:46.826Z,12.26
2018-09-26T04:14:15.679Z,12.28
2018-09-26T04:16:44.571Z,12.30
2018-09-26T04:19:13.448Z,12.27
2018-09-26T04:21:42.604Z,12.29
2018-09-26T04:24:11.545Z,12.17
2018-09-26T04:26:40.521Z,12.02
2018-09-26T04:29:09.625Z,11.95
2018-09-26T04:31:38.481Z,12.00
2018-09-26T04:34:08.008Z,12.04
2018-09-26T04:36:37.157Z,12.07
2018-09-26T04:39:09.937Z,11.99
2018-09-26T04:41:38.873Z,12.00
2018-09-26T04:44:07.946Z,12.03
2018-09-26T04:46:36.926Z,12.02
2018-09-26T04:49:06.015Z,11.93
2018-09-26T04:51:35.969Z,11.96
2018-09-26T04:54:06.124Z,12.02
2018-09-26T04:56:34.999Z,12.01
2018-09-26T04:59:04.360Z,11.64
2018-09-26T05:01:33.279Z,11.73
2018-09-26T05:04:03.441Z,11.83
2018-09-26T05:06:32.340Z,11.82
2018-09-26T05:09:01.385Z,11.80
2018-09-26T05:11:30.619Z,11.61
2018-09-26T05:13:59.664Z,11.67
2018-09-26T05:16:28.528Z,11.75
2018-09-26T05:18:57.727Z,11.74
2018-09-26T05:21:26.580Z,11.73
2018-09-26T05:23:55.549Z,11.67
2018-09-26T05:26:24.441Z,11.65
2018-09-26T05:28:53.334Z,11.67
2018-09-26T05:31:22.725Z,11.73
2018-09-26T05:33:51.950Z,11.57
2018-09-26T05:36:20.813Z,11.60
2018-09-26T05:38:49.685Z,11.65
2018-09-26T05:41:18.563Z,11.70
2018-09-26T05:43:47.740Z,11.80
2018-09-26T05:46:17.123Z,11.85
2018-09-26T05:48:46.025Z,11.80
2018-09-26T05:51:14.908Z,11.54
2018-09-26T05:53:44.161Z,11.75
2018-09-26T05:56:13.081Z,11.79
2018-09-26T05:58:41.992Z,11.87
2018-09-26T06:01:11.186Z,11.91
2018-09-26T06:03:40.079Z,11.93
2018-09-26T06:06:08.985Z,12.01
2018-09-26T06:08:37.925Z,11.95
2018-09-26T06:11:07.127Z,12.00
2018-09-26T06:13:36.315Z,11.99
2018-09-26T06:16:06.167Z,12.15
2018-09-26T06:18:35.061Z,12.22
2018-09-26T06:21:04.487Z,12.16
2018-09-26T06:23:33.462Z,12.26
2018-09-26T06:26:04.207Z,12.20
2018-09-26T06:28:33.537Z,12.32
2018-09-26T06:31:02.739Z,12.29
2018-09-26T06:33:31.672Z,12.23
2018-09-26T06:36:00.821Z,12.40
2018-09-26T06:38:29.734Z,12.40
2018-09-26T06:40:58.996Z,12.51
2018-09-26T06:43:28.230Z,12.55
2018-09-26T06:45:57.174Z,12.54
2018-09-26T06:48:26.195Z,12.69
2018-09-26T06:50:55.245Z,12.77
2018-09-26T06:53:24.235Z,12.83
2018-09-26T06:55:53.639Z,12.89
2018-09-26T06:58:22.731Z,12.98
2018-09-26T07:00:51.864Z,13.01
2018-09-26T07:03:21.075Z,13.17
2018-09-26T07:06:10.988Z,13.19
2018-09-26T07:08:40.202Z,13.18
2018-09-26T07:11:16.325Z,13.30
2018-09-26T07:13:45.370Z,13.33
2018-09-26T07:16:14.611Z,13.47
2018-09-26T07:18:43.505Z,13.57
2018-09-26T07:21:12.417Z,13.70
2018-09-26T07:23:41.578Z,13.83
2018-09-26T07:26:10.520Z,13.97
2018-09-26T07:28:39.711Z,13.91
2018-09-26T07:31:08.968Z,14.02
2018-09-26T07:33:37.963Z,14.03
2018-09-26T07:36:06.863Z,14.06
2018-09-26T07:38:37.163Z,13.88
2018-09-26T07:41:06.118Z,13.89
2018-09-26T07:43:35.027Z,14.15
2018-09-26T07:46:06.389Z,14.17
2018-09-26T07:48:35.308Z,14.47
2018-09-26T07:51:04.527Z,14.62
2018-09-26T07:53:33.863Z,14.43
2018-09-26T07:56:04.126Z,14.10
2018-09-26T07:58:33.052Z,14.32
2018-09-26T08:01:02.217Z,14.13
2018-09-26T08:03:31.168Z,14.29
2018-09-26T08:06:00.286Z,14.77
2018-09-26T08:08:29.591Z,15.15
2018-09-26T08:10:58.712Z,15.58
2018-09-26T08:13:27.584Z,15.84
2018-09-26T08:15:56.495Z,16.00
2018-09-26T08:18:25.549Z,15.77
2018-09-26T08:20:54.691Z,15.99
2018-09-26T08:23:23.606Z,16.33
2018-09-26T08:25:52.498Z,15.59
2018-09-26T08:28:21.694Z,14.64
2018-09-26T08:30:50.983Z,15.35
2018-09-26T08:33:19.995Z,15.90
2018-09-26T08:35:49.181Z,16.34
2018-09-26T08:38:18.902Z,16.49
2018-09-26T08:40:47.854Z,16.93
2018-09-26T08:43:16.737Z,16.63
2018-09-26T08:45:45.814Z,16.73
2018-09-26T08:48:14.806Z,17.22
2018-09-26T08:50:43.765Z,17.33
2018-09-26T08:53:12.656Z,17.55
2018-09-26T08:55:42.061Z,17.62
2018-09-26T08:58:11.055Z,17.81
2018-09-26T09:00:39.996Z,17.85
2018-09-26T09:03:09.527Z,18.09
2018-09-26T09:05:38.443Z,18.12
2018-09-26T09:08:07.349Z,18.36
2018-09-26T09:10:36.644Z,18.48
2018-09-26T09:13:05.547Z,18.59
2018-09-26T09:15:34.464Z,18.74
2018-09-26T09:18:05.278Z,18.41
2018-09-26T09:20:34.175Z,18.09
2018-09-26T09:23:03.297Z,18.21
2018-09-26T09:25:32.165Z,18.48
2018-09-26T09:28:01.085Z,18.83
2018-09-26T09:30:30.700Z,19.18
2018-09-26T09:32:59.861Z,17.59
2018-09-26T09:35:28.742Z,18.00
2018-09-26T09:37:57.657Z,18.69
2018-09-26T09:40:26.538Z,18.70
2018-09-26T09:43:25.705Z,19.32
2018-09-26T09:45:54.882Z,19.50
2018-09-26T09:48:23.786Z,20.00
2018-09-26T09:50:52.717Z,20.35
2018-09-26T09:53:21.669Z,20.47
2018-09-26T09:55:51.901Z,20.75
2018-09-26T09:58:21.753Z,20.99
2018-09-26T10:00:56.088Z,21.48
2018-09-26T10:03:25.019Z,20.25
2018-09-26T10:05:54.316Z,20.27
2018-09-26T10:08:23.767Z,20.54
2018-09-26T10:10:52.596Z,21.28
2018-09-26T10:13:21.883Z,21.74
2018-09-26T10:15:50.855Z,21.96
2018-09-26T10:18:19.743Z,22.14
2018-09-26T10:20:48.902Z,22.56
2018-09-26T10:23:17.786Z,22.40
2018-09-26T10:25:46.659Z,22.22
2018-09-26T10:28:15.836Z,22.00
2018-09-26T10:30:44.708Z,21.95
2018-09-26T10:33:13.595Z,22.70
2018-09-26T10:35:42.746Z,22.71
2018-09-26T10:38:11.627Z,22.78
2018-09-26T10:40:40.547Z,22.78
2018-09-26T10:43:09.740Z,23.26
2018-09-26T10:45:39.490Z,23.31
2018-09-26T10:48:08.404Z,22.69
2018-09-26T10:50:37.377Z,22.65
2018-09-26T10:53:06.256Z,22.74
2018-09-26T10:55:35.517Z,22.61
2018-09-26T10:58:05.632Z,23.39
2018-09-26T11:00:34.560Z,23.24
2018-09-26T11:03:04.176Z,23.28
2018-09-26T11:05:33.161Z,23.77
2018-09-26T11:08:03.274Z,24.28
2018-09-26T11:10:32.522Z,24.58
2018-09-26T11:13:01.599Z,24.46
2018-09-26T11:15:30.470Z,24.39
2018-09-26T11:17:59.607Z,24.79
2018-09-26T11:20:28.618Z,25.01
2018-09-26T11:22:57.757Z,25.20
2018-09-26T11:25:26.975Z,25.27
2018-09-26T11:27:55.973Z,25.53
2018-09-26T11:33:25.807Z,21.96
2018-09-26T11:35:54.872Z,22.55
2018-09-26T11:38:24.245Z,23.04
2018-09-26T11:41:03.320Z,23.20
2018-09-26T11:43:37.692Z,23.35
2018-09-26T11:46:06.921Z,21.00
2018-09-26T11:48:35.856Z,20.80
2018-09-26T11:51:05.379Z,20.60
2018-09-26T11:53:34.290Z,21.60
2018-09-26T11:56:04.284Z,22.48
2018-09-26T11:58:33.642Z,23.07
2018-09-26T12:01:02.827Z,23.30
2018-09-26T12:03:31.723Z,23.35
2018-09-26T12:06:01.200Z,24.19
2018-09-26T12:08:30.164Z,23.97
2018-09-26T12:10:59.104Z,24.04
2018-09-26T12:13:28.442Z,25.11
2018-09-26T12:15:57.337Z,25.77
2018-09-26T12:18:26.387Z,25.56
2018-09-26T12:20:55.548Z,23.67
2018-09-26T12:26:04.805Z,25.26
2018-09-26T12:28:33.699Z,25.64
2018-09-26T12:31:02.663Z,24.59
2018-09-26T12:33:31.983Z,25.33
2018-09-26T12:36:01.018Z,24.61
2018-09-26T12:38:29.941Z,23.69
2018-09-26T12:40:59.160Z,23.79
2018-09-26T12:43:28.085Z,23.38
2018-09-26T12:45:57.014Z,24.40
2018-09-26T12:48:26.275Z,24.00
2018-09-26T12:50:55.176Z,24.66
2018-09-26T12:53:24.125Z,25.68
2018-09-26T12:56:18.106Z,26.04
2018-09-26T13:02:07.040Z,25.68
2018-09-26T13:04:36.029Z,25.57
2018-09-26T13:07:05.110Z,25.37
2018-09-26T13:09:34.099Z,25.77
2018-09-26T13:12:05.116Z,26.38
2018-09-26T13:14:34.304Z,26.47
2018-09-26T13:17:05.141Z,26.65
2018-09-26T13:19:34.133Z,26.32
2018-09-26T13:22:03.938Z,25.45
2018-09-26T13:24:32.944Z,24.36
2018-09-26T13:27:01.950Z,24.74
2018-09-26T13:29:32.234Z,25.43
2018-09-26T13:32:01.184Z,25.83
2018-09-26T13:34:30.073Z,25.27
2018-09-26T13:36:59.236Z,25.33
2018-09-26T13:39:28.164Z,25.07
2018-09-26T13:41:57.456Z,25.00
2018-09-26T13:44:26.751Z,23.38
2018-09-26T13:46:55.748Z,23.18
2018-09-26T13:49:24.647Z,22.40
2018-09-26T13:51:53.817Z,22.34
2018-09-26T13:54:22.792Z,22.42
2018-09-26T13:56:51.644Z,23.20
2018-09-26T13:59:20.847Z,23.40
2018-09-26T14:01:49.754Z,22.04
2018-09-26T14:04:19.042Z,22.51
2018-09-26T14:06:48.276Z,23.08
2018-09-26T14:09:17.222Z,23.07
2018-09-26T14:11:46.093Z,23.76
2018-09-26T14:14:15.340Z,23.73
2018-09-26T14:16:44.273Z,24.62
2018-09-26T14:19:13.246Z,25.24
2018-09-26T14:21:53.279Z,25.32
2018-09-26T14:24:22.358Z,24.59
2018-09-26T14:26:51.674Z,23.93
2018-09-26T14:29:21.164Z,23.37
2018-09-26T14:31:50.450Z,24.25
2018-09-26T14:34:20.358Z,24.91
2018-09-26T14:36:49.646Z,23.14
2018-09-26T14:39:20.039Z,23.97
2018-09-26T14:41:49.590Z,24.60
2018-09-26T14:44:19.018Z,24.85
2018-09-26T14:46:48.270Z,24.71
2018-09-26T14:49:17.922Z,24.76
2018-09-26T14:51:47.181Z,24.70
2018-09-26T14:54:16.737Z,24.40
2018-09-26T14:56:46.621Z,24.32
2018-09-26T14:59:15.924Z,24.10
2018-09-26T15:01:45.294Z,24.31
2018-09-26T15:04:15.016Z,24.23
2018-09-26T15:06:44.700Z,24.53
2018-09-26T15:09:14.053Z,24.96
2018-09-26T15:11:43.747Z,25.21
2018-09-26T15:14:13.103Z,25.54
2018-09-26T15:16:42.463Z,26.10
2018-09-26T15:19:12.015Z,25.38
2018-09-26T15:21:41.557Z,25.88
2018-09-26T15:24:10.872Z,25.99
2018-09-26T15:26:40.849Z,25.79
2018-09-26T15:29:10.800Z,25.23
2018-09-26T15:31:40.445Z,25.58
2018-09-26T15:34:10.926Z,25.15
2018-09-26T15:36:40.205Z,25.31
2018-09-26T15:39:10.608Z,25.02
2018-09-26T15:41:40.992Z,24.31
2018-09-26T15:44:10.301Z,23.51
2018-09-26T15:46:39.640Z,24.39
2018-09-26T15:49:09.496Z,25.09
2018-09-26T15:51:38.845Z,25.31
2018-09-26T15:54:08.545Z,25.72
2018-09-26T15:56:38.225Z,24.79
2018-09-26T15:59:07.636Z,24.54
2018-09-26T16:01:37.354Z,25.24
2018-09-26T16:04:07.027Z,25.09
2018-09-26T16:06:36.498Z,23.49
2018-09-26T16:09:07.000Z,23.40
2018-09-26T16:11:37.209Z,23.71
2018-09-26T16:14:07.194Z,23.93
2018-09-26T16:16:36.577Z,23.96
2018-09-26T16:19:06.290Z,23.96
2018-09-26T16:21:35.945Z,23.19
2018-09-26T16:24:06.998Z,22.95
2018-09-26T16:26:37.661Z,22.77
2018-09-26T16:29:07.651Z,22.80
2018-09-26T16:31:37.085Z,22.77
2018-09-26T16:34:07.405Z,22.27
2018-09-26T16:36:36.807Z,22.10
2018-09-26T16:39:09.270Z,22.15
2018-09-26T16:41:38.961Z,22.01
2018-09-26T16:44:08.507Z,21.95
2018-09-26T16:46:37.956Z,21.66
2018-09-26T16:49:08.459Z,21.60
2018-09-26T16:51:37.858Z,21.57
2018-09-26T16:54:08.821Z,21.58
2018-09-26T16:56:38.187Z,21.63
2018-09-26T16:59:07.785Z,21.52
2018-09-26T17:01:37.861Z,21.48
2018-09-26T17:04:08.392Z,21.45
2018-09-26T17:06:37.878Z,21.44
2018-09-26T17:09:09.302Z,21.36
2018-09-26T17:11:45.437Z,21.20
2018-09-26T17:14:14.901Z,21.11
2018-09-26T17:16:44.490Z,21.00
2018-09-26T17:19:13.891Z,20.98
2018-09-26T17:21:44.044Z,20.80
2018-09-26T17:24:13.746Z,20.76
2018-09-26T17:26:43.549Z,20.76
2018-09-26T17:29:13.766Z,20.70
2018-09-26T17:31:50.471Z,20.68
2018-09-26T17:34:20.749Z,20.62
2018-09-26T17:36:51.251Z,20.55
2018-09-26T17:39:21.776Z,20.50
2018-09-26T17:41:52.600Z,20.34
2018-09-26T17:44:22.299Z,20.34
2018-09-26T17:46:51.707Z,20.31
2018-09-26T17:49:21.308Z,20.26
2018-09-26T17:51:51.332Z,20.22
2018-09-26T17:54:21.940Z,20.17
2018-09-26T17:56:51.393Z,20.11
2018-09-26T17:59:21.764Z,20.04
2018-09-26T18:01:51.169Z,19.96
2018-09-26T18:04:20.789Z,19.88
2018-09-26T18:06:52.565Z,19.85
2018-09-26T18:09:22.858Z,19.80
2018-09-26T18:11:53.879Z,19.80
2018-09-26T18:14:23.727Z,19.74
2018-09-26T18:16:53.276Z,19.68
2018-09-26T18:19:23.351Z,19.62
2018-09-26T18:21:54.472Z,19.57
2018-09-26T18:24:24.348Z,19.51
2018-09-26T18:26:54.436Z,19.48
2018-09-26T18:29:24.835Z,19.43
2018-09-26T18:31:54.556Z,19.38
2018-09-26T18:34:23.916Z,19.37
2018-09-26T18:36:54.376Z,19.32
2018-09-26T18:39:29.077Z,19.27
2018-09-26T18:42:00.676Z,19.21
2018-09-26T18:44:30.304Z,19.16
2018-09-26T18:47:02.396Z,19.14
2018-09-26T18:49:31.813Z,19.07
2018-09-26T18:54:38.478Z,18.97
2018-09-26T18:57:08.015Z,18.98
2018-09-26T18:59:37.391Z,18.94
2018-09-26T19:02:07.520Z,18.88
2018-09-26T19:04:36.960Z,18.89
2018-09-26T19:07:06.463Z,18.83
2018-09-26T19:09:36.173Z,18.80
2018-09-26T19:12:06.722Z,18.79
2018-09-26T19:14:36.990Z,18.79
2018-09-26T19:17:06.740Z,18.72
2018-09-26T19:19:36.395Z,18.70
2018-09-26T19:22:07.845Z,18.67
2018-09-26T19:24:37.676Z,18.62
2018-09-26T19:27:07.085Z,18.59
2018-09-26T19:29:36.967Z,18.58
2018-09-26T19:32:06.678Z,18.55
2018-09-26T19:34:36.540Z,18.54
2018-09-26T19:37:06.774Z,18.48
2018-09-26T19:39:36.646Z,18.50
2018-09-26T19:44:59.342Z,18.38
2018-09-26T19:47:35.689Z,18.33
2018-09-26T19:50:07.031Z,18.28
2018-09-26T19:52:37.189Z,18.24
2018-09-26T19:55:06.226Z,18.18
2018-09-26T19:57:35.259Z,18.16
2018-09-26T20:00:05.840Z,18.10
2018-09-26T20:02:40.215Z,18.09
2018-09-26T20:05:09.163Z,18.05
2018-09-26T20:07:38.970Z,18.02
2018-09-26T20:10:08.906Z,18.01
2018-09-26T20:12:37.929Z,17.96
2018-09-26T20:15:07.408Z,17.91
2018-09-26T20:17:36.307Z,17.87
2018-09-26T20:20:06.591Z,17.82
2018-09-26T20:22:35.561Z,17.73
2018-09-26T20:25:04.779Z,17.75
2018-09-26T20:27:34.141Z,17.75
2018-09-26T20:30:05.164Z,17.71
2018-09-26T20:32:37.600Z,17.67
2018-09-26T20:35:07.280Z,17.64
2018-09-26T20:37:38.306Z,17.61
2018-09-26T20:40:07.376Z,17.51
2018-09-26T20:42:40.795Z,17.47
2018-09-26T20:45:11.599Z,17.46
2018-09-26T20:47:40.463Z,17.47
2018-09-26T20:50:10.905Z,17.41
2018-09-26T20:52:39.807Z,17.38
2018-09-26T20:55:08.700Z,17.38
2018-09-26T20:57:38.372Z,17.40
2018-09-26T21:00:11.120Z,17.36
2018-09-26T21:02:40.184Z,17.31
2018-09-26T21:05:09.497Z,17.29
2018-09-26T21:07:38.428Z,17.27
2018-09-26T21:10:07.344Z,17.26
2018-09-26T21:12:36.594Z,17.16
2018-09-26T21:15:16.505Z,17.11
2018-09-26T21:19:52.076Z,17.13
2018-09-26T21:22:20.930Z,17.06
2018-09-26T21:24:49.765Z,16.88
2018-09-26T21:27:18.918Z,16.92
2018-09-26T21:29:48.749Z,16.92
2018-09-26T21:32:18.137Z,16.83
2018-09-26T21:34:47.309Z,16.81
2018-09-26T21:37:16.236Z,16.75
2018-09-26T21:39:45.109Z,16.74
2018-09-26T21:42:14.369Z,16.49
2018-09-26T21:44:44.065Z,16.54
2018-09-26T21:47:13.128Z,16.58
2018-09-26T21:49:47.158Z,16.57
2018-09-26T21:52:16.010Z,16.40
2018-09-26T21:54:44.897Z,16.00
2018-09-26T21:57:14.080Z,16.09
2018-09-26T21:59:43.559Z,16.17
2018-09-26T22:02:12.454Z,16.20
2018-09-26T22:04:41.622Z,16.27
2018-09-26T22:07:10.455Z,16.35
2018-09-26T22:09:39.895Z,16.06
2018-09-26T22:12:09.019Z,15.94
2018-09-26T22:14:37.861Z,15.96
2018-09-26T22:17:06.740Z,15.94
2018-09-26T22:19:37.142Z,15.75
2018-09-26T22:22:09.385Z,15.81
2018-09-26T22:24:38.489Z,15.89
2018-09-26T22:27:07.818Z,15.90
2018-09-26T22:29:38.205Z,15.97
2018-09-26T22:32:07.229Z,15.97
2018-09-26T22:34:36.388Z,15.98
2018-09-26T22:37:05.223Z,16.00
2018-09-26T22:39:37.666Z,15.92
2018-09-26T22:42:06.812Z,15.98
2018-09-26T22:44:35.679Z,16.01
2018-09-26T22:47:04.715Z,15.98
2018-09-26T22:49:33.813Z,15.93
2018-09-26T22:52:03.256Z,15.85
2018-09-26T22:54:32.694Z,15.85
2018-09-26T22:57:02.064Z,15.89
2018-09-26T22:59:31.816Z,15.76
2018-09-26T23:02:00.754Z,15.68
2018-09-26T23:04:30.947Z,15.74
2018-09-26T23:07:00.000Z,15.81
2018-09-26T23:09:28.862Z,15.77
2018-09-26T23:11:57.996Z,15.77
2018-09-26T23:14:30.455Z,15.63
2018-09-26T23:16:59.440Z,15.64
2018-09-26T23:19:28.600Z,15.67
2018-09-26T23:22:04.066Z,15.73
2018-09-26T23:24:36.684Z,15.71
2018-09-26T23:27:06.069Z,15.68
2018-09-26T23:29:34.916Z,15.71
2018-09-26T23:32:06.801Z,15.68
2018-09-26T23:34:35.932Z,15.67
2018-09-26T23:37:04.772Z,15.59
2018-09-26T23:39:33.615Z,15.50
2018-09-26T23:42:03.548Z,15.53
2018-09-26T23:44:32.407Z,15.50
2018-09-26T23:47:01.231Z,15.50
2018-09-26T23:49:30.340Z,15.48
2018-09-26T23:51:59.194Z,15.34
2018-09-26T23:54:28.096Z,15.16
2018-09-26T23:56:57.159Z,15.19
2018-09-26T23:59:26.048Z,15.19
